createdAt,value
2019-06-26T00:00:01.002Z,99.40
2019-06-26T00:02:30.045Z,99.80
2019-06-26T00:04:59.084Z,99.40
2019-06-26T00:07:28.104Z,99.40
2019-06-26T00:09:57.425Z,99.60
2019-06-26T00:12:26.372Z,99.90
2019-06-26T00:14:55.477Z,99.90
2019-06-26T00:17:24.470Z,99.90
2019-06-26T00:19:55.707Z,99.90
2019-06-26T00:22:24.886Z,99.90
2019-06-26T00:24:53.961Z,99.90
2019-06-26T00:27:23.070Z,99.90
2019-06-26T00:29:52.278Z,99.90
2019-06-26T00:32:21.187Z,99.90
2019-06-26T00:34:50.101Z,99.90
2019-06-26T00:37:19.272Z,99.90
2019-06-26T00:39:48.293Z,99.90
2019-06-26T00:42:17.256Z,99.90
2019-06-26T00:44:46.120Z,99.90
2019-06-26T00:47:16.371Z,99.90
2019-06-26T00:49:45.375Z,99.90
2019-06-26T00:52:14.245Z,99.90
2019-06-26T00:54:43.189Z,99.90
2019-06-26T00:57:12.228Z,99.90
2019-06-26T00:59:41.299Z,99.90
2019-06-26T01:02:10.380Z,99.90
2019-06-26T01:04:41.960Z,99.90
2019-06-26T01:07:10.889Z,99.90
2019-06-26T01:09:40.025Z,99.90
2019-06-26T01:12:09.159Z,99.90
2019-06-26T01:14:38.498Z,99.90
2019-06-26T01:17:07.623Z,99.90
2019-06-26T01:19:36.555Z,99.90
2019-06-26T01:22:05.715Z,99.90
2019-06-26T01:24:34.725Z,99.90
2019-06-26T01:27:03.656Z,99.90
2019-06-26T01:29:32.776Z,99.90
2019-06-26T01:32:01.894Z,99.90
2019-06-26T01:34:30.860Z,99.70
2019-06-26T01:36:59.876Z,99.90
2019-06-26T01:39:28.781Z,99.80
2019-06-26T01:41:57.907Z,99.90
2019-06-26T01:44:26.813Z,99.90
2019-06-26T01:46:55.761Z,99.90
2019-06-26T01:49:24.721Z,99.90
2019-06-26T01:51:53.736Z,99.90
2019-06-26T01:54:22.651Z,99.90
2019-06-26T01:56:51.669Z,99.90
2019-06-26T01:59:20.643Z,99.90
2019-06-26T02:01:49.623Z,99.90
2019-06-26T02:04:18.561Z,99.90
2019-06-26T02:06:47.658Z,99.90
2019-06-26T02:09:16.664Z,99.90
2019-06-26T02:11:45.734Z,99.90
2019-06-26T02:14:30.132Z,99.90
2019-06-26T02:16:45.413Z,99.90
2019-06-26T02:19:15.561Z,99.90
2019-06-26T02:21:44.769Z,99.90
2019-06-26T02:24:13.710Z,99.90
2019-06-26T02:26:42.627Z,99.90
2019-06-26T02:29:11.666Z,99.90
2019-06-26T02:31:40.741Z,99.90
2019-06-26T02:34:09.912Z,99.90
2019-06-26T02:36:39.062Z,99.90
2019-06-26T02:39:08.030Z,99.90
2019-06-26T02:41:37.176Z,99.90
2019-06-26T02:44:07.465Z,99.90
2019-06-26T02:46:36.437Z,99.90
2019-06-26T02:49:05.608Z,99.90
2019-06-26T02:51:34.777Z,99.90
2019-06-26T02:54:04.323Z,99.90
2019-06-26T02:56:33.397Z,99.90
2019-06-26T02:59:02.327Z,99.90
2019-06-26T03:01:31.461Z,99.90
2019-06-26T03:04:00.534Z,99.90
2019-06-26T03:06:29.735Z,99.90
2019-06-26T03:08:58.702Z,99.90
2019-06-26T03:11:27.784Z,99.90
2019-06-26T03:13:56.740Z,99.90
2019-06-26T03:16:25.653Z,99.90
2019-06-26T03:18:55.035Z,99.90
2019-06-26T03:21:23.968Z,99.90
2019-06-26T03:23:53.098Z,99.90
2019-06-26T03:26:22.141Z,99.90
2019-06-26T03:28:51.238Z,99.90
2019-06-26T03:31:20.297Z,99.90
2019-06-26T03:33:49.226Z,99.90
2019-06-26T03:36:19.528Z,99.90
2019-06-26T03:38:48.539Z,99.90
2019-06-26T03:41:17.546Z,99.90
2019-06-26T03:43:46.401Z,99.90
2019-06-26T03:46:15.294Z,99.90
2019-06-26T03:48:44.200Z,99.90
2019-06-26T03:51:14.215Z,99.90
2019-06-26T03:53:43.385Z,99.90
2019-06-26T03:56:12.294Z,99.90
2019-06-26T03:58:41.242Z,99.90
2019-06-26T04:01:10.322Z,99.90
2019-06-26T04:03:39.379Z,99.90
2019-06-26T04:06:08.398Z,99.90
2019-06-26T04:08:37.494Z,99.90
2019-06-26T04:11:06.551Z,99.90
2019-06-26T04:13:35.549Z,99.90
2019-06-26T04:16:04.891Z,99.90
2019-06-26T04:18:33.863Z,99.90
2019-06-26T04:21:02.817Z,99.90
2019-06-26T04:23:31.932Z,99.90
2019-06-26T04:26:00.840Z,99.90
2019-06-26T04:28:29.667Z,99.90
2019-06-26T04:30:58.517Z,99.90
2019-06-26T04:33:27.397Z,99.90
2019-06-26T04:35:56.582Z,99.90
2019-06-26T04:38:25.418Z,99.90
2019-06-26T04:40:54.477Z,99.90
2019-06-26T04:43:23.333Z,99.90
2019-06-26T04:45:58.262Z,99.90
2019-06-26T04:48:22.865Z,99.90
2019-06-26T04:50:51.723Z,99.90
2019-06-26T04:53:20.758Z,99.90
2019-06-26T04:55:49.688Z,99.90
2019-06-26T04:58:18.614Z,99.90
2019-06-26T05:00:47.641Z,99.90
2019-06-26T05:03:16.547Z,99.90
2019-06-26T05:05:45.538Z,99.90
2019-06-26T05:08:14.470Z,99.90
2019-06-26T05:10:44.936Z,99.90
2019-06-26T05:13:14.098Z,99.90
2019-06-26T05:15:43.011Z,99.90
2019-06-26T05:18:15.370Z,99.90
2019-06-26T05:20:44.557Z,99.90
2019-06-26T05:23:13.526Z,99.90
2019-06-26T05:25:42.870Z,99.90
2019-06-26T05:28:12.151Z,99.90
2019-06-26T05:30:41.161Z,99.90
2019-06-26T05:33:10.208Z,99.90
2019-06-26T05:35:42.157Z,99.90
2019-06-26T05:38:33.341Z,99.90
2019-06-26T05:41:02.249Z,99.90
2019-06-26T05:43:31.254Z,99.90
2019-06-26T05:46:00.163Z,99.90
2019-06-26T05:48:29.175Z,99.90
2019-06-26T05:50:58.454Z,99.90
2019-06-26T05:53:27.529Z,99.90
2019-06-26T05:55:56.605Z,99.90
2019-06-26T05:58:25.521Z,99.90
2019-06-26T06:00:54.862Z,99.90
2019-06-26T06:03:23.892Z,99.90
2019-06-26T06:05:53.100Z,99.90
2019-06-26T06:08:22.056Z,99.90
2019-06-26T06:10:51.184Z,99.90
2019-06-26T06:13:20.150Z,99.90
2019-06-26T06:15:49.053Z,99.90
2019-06-26T06:18:18.077Z,99.90
2019-06-26T06:20:47.172Z,99.90
2019-06-26T06:23:16.285Z,99.90
2019-06-26T06:25:45.229Z,99.90
2019-06-26T06:28:14.322Z,99.90
2019-06-26T06:30:43.370Z,99.90
2019-06-26T06:33:12.425Z,99.90
2019-06-26T06:35:41.430Z,99.90
2019-06-26T06:38:10.433Z,99.90
2019-06-26T06:40:39.420Z,99.90
2019-06-26T06:43:08.397Z,99.90
2019-06-26T06:45:37.381Z,99.90
2019-06-26T06:48:06.303Z,99.90
2019-06-26T06:50:35.374Z,99.90
2019-06-26T06:53:04.648Z,99.90
2019-06-26T06:55:33.694Z,99.90
2019-06-26T06:58:02.945Z,99.90
2019-06-26T07:00:32.228Z,99.90
2019-06-26T07:03:01.283Z,99.90
2019-06-26T07:05:30.399Z,99.90
2019-06-26T07:07:59.605Z,99.90
2019-06-26T07:10:28.627Z,99.90
2019-06-26T07:12:57.598Z,99.90
2019-06-26T07:15:26.781Z,99.80
2019-06-26T07:17:55.845Z,99.90
2019-06-26T07:20:24.996Z,99.90
2019-06-26T07:22:54.099Z,99.90
2019-06-26T07:25:23.079Z,99.70
2019-06-26T07:27:52.118Z,99.20
2019-06-26T07:30:30.487Z,99.20
2019-06-26T07:32:56.818Z,99.60
2019-06-26T07:35:25.799Z,99.10
2019-06-26T07:37:54.985Z,99.20
2019-06-26T07:40:24.001Z,99.30
2019-06-26T07:42:53.083Z,99.70
2019-06-26T07:45:24.189Z,99.30
2019-06-26T07:47:57.061Z,99.20
2019-06-26T07:50:25.936Z,99.60
2019-06-26T07:52:54.969Z,99.80
2019-06-26T07:55:26.179Z,99.90
2019-06-26T07:57:55.467Z,99.90
2019-06-26T08:00:24.435Z,99.90
2019-06-26T08:02:53.474Z,99.40
2019-06-26T08:05:22.635Z,99.30
2019-06-26T08:07:51.687Z,99.70
2019-06-26T08:10:20.778Z,99.90
2019-06-26T08:12:49.668Z,99.90
2019-06-26T08:15:19.251Z,99.90
2019-06-26T08:17:59.980Z,99.70
2019-06-26T08:20:21.799Z,99.90
2019-06-26T08:22:50.825Z,99.90
2019-06-26T08:25:21.024Z,99.90
2019-06-26T08:27:49.995Z,99.90
2019-06-26T08:30:19.922Z,99.90
2019-06-26T08:32:49.248Z,99.90
2019-06-26T08:35:18.377Z,99.90
2019-06-26T08:37:47.633Z,99.90
2019-06-26T08:40:18.779Z,99.70
2019-06-26T08:42:48.103Z,99.70
2019-06-26T08:45:17.428Z,99.90
2019-06-26T08:47:46.414Z,99.90
2019-06-26T08:50:16.120Z,99.90
2019-06-26T08:52:54.840Z,99.90
2019-06-26T08:59:05.238Z,99.90
2019-06-26T09:01:34.500Z,99.90
2019-06-26T09:04:05.281Z,99.90
2019-06-26T09:06:34.165Z,99.90
2019-06-26T09:09:03.284Z,99.90
2019-06-26T09:11:32.217Z,99.90
2019-06-26T09:14:01.252Z,99.90
2019-06-26T09:16:30.774Z,99.90
2019-06-26T09:18:59.648Z,99.90
2019-06-26T09:21:31.016Z,99.90
2019-06-26T09:23:59.222Z,99.90
2019-06-26T09:26:28.190Z,99.90
2019-06-26T09:28:57.109Z,99.90
2019-06-26T09:31:25.958Z,99.90
2019-06-26T09:33:54.975Z,99.90
2019-06-26T09:36:24.036Z,99.90
2019-06-26T09:38:52.928Z,99.90
2019-06-26T09:41:21.982Z,99.90
2019-06-26T09:43:50.994Z,99.90
2019-06-26T09:46:19.906Z,99.90
2019-06-26T09:48:53.145Z,99.90
2019-06-26T09:51:19.576Z,99.90
2019-06-26T09:53:48.450Z,99.90
2019-06-26T09:56:17.256Z,99.90
2019-06-26T09:58:46.291Z,99.90
2019-06-26T10:01:15.285Z,99.90
2019-06-26T10:03:45.377Z,99.90
2019-06-26T10:06:14.642Z,99.90
2019-06-26T10:08:43.564Z,99.90
2019-06-26T10:11:12.806Z,99.90
2019-06-26T10:13:41.795Z,99.90
2019-06-26T10:16:10.672Z,99.90
2019-06-26T10:18:39.671Z,99.80
2019-06-26T10:21:09.095Z,99.60
2019-06-26T10:23:38.230Z,99.90
2019-06-26T10:26:07.224Z,99.50
2019-06-26T10:28:36.160Z,99.30
2019-06-26T10:31:05.155Z,99.10
2019-06-26T10:33:34.141Z,99.00
2019-06-26T10:36:03.281Z,98.70
2019-06-26T10:38:32.191Z,99.10
2019-06-26T10:41:01.180Z,98.70
2019-06-26T10:43:30.246Z,98.80
2019-06-26T10:45:59.128Z,98.80
2019-06-26T10:48:28.216Z,99.20
2019-06-26T10:50:58.754Z,98.80
2019-06-26T10:53:27.721Z,98.40
2019-06-26T10:55:56.683Z,98.20
2019-06-26T10:58:25.767Z,98.90
2019-06-26T11:00:55.221Z,98.10
2019-06-26T11:03:24.915Z,98.20
2019-06-26T11:05:53.861Z,98.00
2019-06-26T11:08:28.303Z,97.40
2019-06-26T11:10:57.474Z,97.80
2019-06-26T11:13:28.199Z,97.70
2019-06-26T11:15:57.471Z,98.50
2019-06-26T11:18:26.665Z,97.60
2019-06-26T11:20:55.834Z,97.60
2019-06-26T11:23:25.023Z,97.70
2019-06-26T11:25:54.251Z,96.80
2019-06-26T11:28:23.645Z,96.70
2019-06-26T11:30:53.322Z,96.60
2019-06-26T11:33:22.682Z,97.00
2019-06-26T11:35:52.184Z,96.40
2019-06-26T11:38:21.274Z,96.40
2019-06-26T11:40:50.421Z,96.40
2019-06-26T11:43:19.542Z,96.30
2019-06-26T11:45:48.810Z,96.50
2019-06-26T11:48:17.974Z,96.20
2019-06-26T11:50:47.124Z,96.40
2019-06-26T11:53:16.314Z,96.50
2019-06-26T11:55:46.018Z,96.90
2019-06-26T11:58:16.036Z,96.30
2019-06-26T12:00:45.307Z,96.00
2019-06-26T12:03:15.000Z,95.60
2019-06-26T12:05:44.096Z,95.70
2019-06-26T12:08:13.210Z,95.80
2019-06-26T12:10:42.466Z,96.20
2019-06-26T12:13:11.727Z,95.50
2019-06-26T12:15:40.989Z,95.10
2019-06-26T12:18:10.103Z,94.80
2019-06-26T12:20:39.494Z,94.90
2019-06-26T12:23:08.498Z,94.70
2019-06-26T12:25:37.671Z,94.50
2019-06-26T12:28:07.135Z,94.40
2019-06-26T12:30:38.596Z,95.20
2019-06-26T12:33:07.546Z,94.90
2019-06-26T12:35:36.586Z,94.10
2019-06-26T12:38:05.656Z,94.10
2019-06-26T12:40:34.754Z,94.10
2019-06-26T12:43:04.303Z,94.00
2019-06-26T12:45:34.958Z,93.70
2019-06-26T12:48:06.113Z,93.40
2019-06-26T12:50:36.288Z,93.70
2019-06-26T12:53:08.090Z,93.70
2019-06-26T12:55:37.643Z,93.70
2019-06-26T12:58:16.076Z,93.20
2019-06-26T13:00:46.720Z,93.10
2019-06-26T13:03:15.924Z,93.40
2019-06-26T13:05:45.238Z,93.30
2019-06-26T13:08:14.587Z,92.90
2019-06-26T13:10:49.871Z,93.10
2019-06-26T13:13:14.925Z,92.90
2019-06-26T13:15:57.814Z,93.00
2019-06-26T13:18:30.008Z,92.80
2019-06-26T13:20:59.303Z,92.90
2019-06-26T13:23:28.534Z,92.50
2019-06-26T13:26:02.359Z,92.10
2019-06-26T13:28:31.838Z,92.20
2019-06-26T13:31:00.902Z,92.40
2019-06-26T13:33:37.974Z,92.80
2019-06-26T13:36:08.886Z,92.80
2019-06-26T13:38:38.256Z,92.60
2019-06-26T13:41:10.971Z,92.40
2019-06-26T13:43:44.161Z,92.90
2019-06-26T13:46:18.937Z,92.70
2019-06-26T13:48:48.289Z,93.10
2019-06-26T13:51:21.479Z,92.80
2019-06-26T13:53:49.609Z,93.00
2019-06-26T13:56:20.476Z,93.00
2019-06-26T13:58:52.898Z,92.70
2019-06-26T14:01:23.204Z,92.50
2019-06-26T14:03:53.858Z,92.70
2019-06-26T14:21:04.203Z,92.80
2019-06-26T14:23:33.365Z,92.10
2019-06-26T14:26:07.590Z,92.10
2019-06-26T14:28:38.559Z,92.10
2019-06-26T14:31:18.254Z,92.10
2019-06-26T14:33:39.315Z,92.50
2019-06-26T14:36:11.725Z,92.30
2019-06-26T14:38:42.643Z,92.00
2019-06-26T14:41:13.261Z,91.80
2019-06-26T14:43:44.285Z,91.90
2019-06-26T14:46:36.795Z,92.10
2019-06-26T14:59:52.186Z,92.10
2019-06-26T15:23:33.060Z,92.40
2019-06-26T15:26:02.243Z,91.30
2019-06-26T15:28:31.223Z,91.30
2019-06-26T15:31:00.479Z,91.70
2019-06-26T15:33:29.499Z,92.20
2019-06-26T15:35:58.638Z,91.30
2019-06-26T15:38:27.845Z,91.60
2019-06-26T15:40:56.886Z,91.00
2019-06-26T15:43:25.806Z,91.40
2019-06-26T15:45:55.014Z,91.20
2019-06-26T15:48:24.045Z,91.50
2019-06-26T15:50:53.242Z,92.40
2019-06-26T15:53:22.361Z,91.50
2019-06-26T15:55:51.214Z,91.50
2019-06-26T15:58:20.257Z,91.20
2019-06-26T16:00:49.196Z,91.50
2019-06-26T16:03:17.968Z,91.50
2019-06-26T16:05:46.782Z,91.70
2019-06-26T16:08:15.572Z,92.10
2019-06-26T16:10:44.432Z,92.30
2019-06-26T16:13:13.944Z,92.30
2019-06-26T16:15:42.940Z,92.10
2019-06-26T16:18:20.007Z,91.60
2019-06-26T16:20:48.857Z,91.50
2019-06-26T16:23:17.737Z,91.80
2019-06-26T16:25:46.644Z,91.60
2019-06-26T16:28:15.594Z,91.70
2019-06-26T16:30:44.372Z,91.40
2019-06-26T16:33:13.360Z,91.40
2019-06-26T16:35:42.218Z,91.40
2019-06-26T16:38:11.067Z,91.80
2019-06-26T16:40:39.986Z,91.50
2019-06-26T16:43:08.828Z,91.60
2019-06-26T16:45:37.616Z,91.60
2019-06-26T16:48:15.025Z,91.90
2019-06-26T16:50:44.541Z,92.30
2019-06-26T16:53:13.832Z,91.70
2019-06-26T16:55:45.479Z,91.70
2019-06-26T16:59:00.850Z,91.90
2019-06-26T17:01:30.171Z,91.70
2019-06-26T17:03:59.191Z,91.20
2019-06-26T17:06:28.333Z,91.00
2019-06-26T17:08:57.565Z,91.50
2019-06-26T17:11:26.885Z,91.20
2019-06-26T17:13:56.345Z,90.90
2019-06-26T17:16:25.837Z,90.70
2019-06-26T17:18:57.984Z,91.00
2019-06-26T17:21:30.120Z,90.90
2019-06-26T17:24:14.068Z,91.30
2019-06-26T17:26:46.090Z,91.10
2019-06-26T17:29:21.011Z,91.20
2019-06-26T17:31:51.598Z,90.90
2019-06-26T17:34:22.833Z,90.90
2019-06-26T17:36:54.062Z,90.70
2019-06-26T17:39:23.736Z,90.40
2019-06-26T17:41:53.302Z,90.20
2019-06-26T17:44:25.977Z,90.50
2019-06-26T17:46:58.543Z,90.50
2019-06-26T17:49:29.069Z,90.90
2019-06-26T17:51:59.575Z,90.80
2019-06-26T17:54:29.126Z,90.90
2019-06-26T17:57:01.463Z,91.20
2019-06-26T17:59:31.611Z,91.20
2019-06-26T18:02:01.513Z,90.90
2019-06-26T18:04:32.352Z,91.00
2019-06-26T18:07:08.373Z,91.20
2019-06-26T18:09:38.226Z,91.40
2019-06-26T18:12:08.413Z,91.70
2019-06-26T18:14:38.071Z,91.70
2019-06-26T18:17:21.883Z,91.70
2019-06-26T18:19:45.256Z,91.70
2019-06-26T18:22:21.053Z,92.20
2019-06-26T18:24:51.317Z,92.30
2019-06-26T18:27:29.662Z,92.70
2019-06-26T18:29:59.569Z,92.50
2019-06-26T18:32:29.482Z,92.80
2019-06-26T18:35:00.466Z,92.70
2019-06-26T18:37:32.532Z,91.70
2019-06-26T18:40:04.364Z,91.50
2019-06-26T18:42:35.436Z,91.30
2019-06-26T18:45:12.351Z,91.70
2019-06-26T18:47:43.533Z,91.30
2019-06-26T18:50:17.211Z,91.30
2019-06-26T18:52:55.706Z,91.60
2019-06-26T18:55:25.849Z,91.70
2019-06-26T18:57:56.736Z,91.30
2019-06-26T19:00:26.558Z,91.20
2019-06-26T19:12:02.770Z,92.40
2019-06-26T19:14:35.396Z,92.60
2019-06-26T19:17:04.950Z,92.40
2019-06-26T19:19:36.910Z,92.30
2019-06-26T19:22:06.735Z,92.20
2019-06-26T19:24:36.571Z,92.50
2019-06-26T19:27:14.953Z,92.90
2019-06-26T19:30:05.214Z,93.00
2019-06-26T19:32:37.387Z,93.20
2019-06-26T19:35:20.225Z,93.50
2019-06-26T19:38:49.088Z,93.30
2019-06-26T19:41:20.506Z,93.50
2019-06-26T19:43:58.162Z,94.20
2019-06-26T19:46:35.949Z,94.40
2019-06-26T19:49:32.876Z,94.70
2019-06-26T19:52:18.777Z,94.90
2019-06-26T19:54:51.438Z,95.00
2019-06-26T19:57:29.330Z,94.90
2019-06-26T19:59:59.892Z,95.10
2019-06-26T20:02:30.933Z,95.40
2019-06-26T20:05:02.319Z,95.40
2019-06-26T20:07:54.997Z,95.70
2019-06-26T20:13:06.631Z,96.10
2019-06-26T20:15:43.456Z,96.00
2019-06-26T20:18:12.563Z,96.20
2019-06-26T20:20:41.643Z,96.20
2019-06-26T20:23:11.189Z,96.50
2019-06-26T20:25:40.677Z,96.60
2019-06-26T20:28:12.782Z,96.40
2019-06-26T20:30:42.278Z,96.20
2019-06-26T20:33:11.517Z,96.40
2019-06-26T20:35:40.756Z,96.40
2019-06-26T20:38:10.330Z,96.60
2019-06-26T20:40:39.840Z,96.70
2019-06-26T20:43:10.125Z,96.90
2019-06-26T20:45:39.250Z,96.80
2019-06-26T20:48:08.499Z,96.80
2019-06-26T20:50:37.720Z,96.80
2019-06-26T20:53:06.872Z,96.80
2019-06-26T20:55:36.018Z,96.90
2019-06-26T20:58:05.308Z,96.90
2019-06-26T21:00:34.478Z,96.90
2019-06-26T21:03:03.585Z,97.00
2019-06-26T21:05:34.019Z,97.00
2019-06-26T21:08:03.166Z,97.10
2019-06-26T21:10:32.568Z,97.30
2019-06-26T21:13:05.918Z,97.50
2019-06-26T21:15:35.070Z,97.50
2019-06-26T21:18:04.170Z,97.50
2019-06-26T21:20:33.256Z,97.70
2019-06-26T21:23:02.214Z,97.70
2019-06-26T21:25:31.308Z,97.70
2019-06-26T21:28:00.567Z,97.60
2019-06-26T21:30:29.591Z,97.90
2019-06-26T21:33:01.633Z,97.60
2019-06-26T21:35:30.719Z,97.70
2019-06-26T21:38:00.322Z,97.70
2019-06-26T21:40:29.514Z,97.70
2019-06-26T21:42:58.708Z,97.60
2019-06-26T21:45:27.890Z,97.40
2019-06-26T21:47:56.969Z,97.60
2019-06-26T21:50:28.880Z,97.50
2019-06-26T21:52:56.890Z,97.80
2019-06-26T21:55:34.338Z,97.60
2019-06-26T21:57:56.860Z,97.80
2019-06-26T22:00:27.814Z,97.80
2019-06-26T22:02:58.065Z,97.80
2019-06-26T22:05:27.385Z,98.00
2019-06-26T22:07:56.806Z,97.90
2019-06-26T22:10:25.932Z,98.20
2019-06-26T22:12:55.254Z,98.20
2019-06-26T22:15:24.472Z,98.10
2019-06-26T22:17:57.066Z,98.10
2019-06-26T22:20:26.316Z,98.10
2019-06-26T22:22:55.788Z,98.00
2019-06-26T22:25:25.088Z,98.30
2019-06-26T22:27:54.244Z,98.10
2019-06-26T22:30:24.089Z,98.20
2019-06-26T22:32:53.405Z,98.50
2019-06-26T22:35:22.688Z,98.30
2019-06-26T22:37:51.788Z,97.90
2019-06-26T22:40:20.963Z,98.20
2019-06-26T22:42:50.138Z,98.20
2019-06-26T22:45:19.950Z,98.00
2019-06-26T22:47:49.145Z,98.00
2019-06-26T22:50:18.476Z,98.10
2019-06-26T22:52:50.037Z,97.90
2019-06-26T22:55:19.569Z,98.00
2019-06-26T22:57:48.613Z,98.00
2019-06-26T23:00:18.290Z,98.20
2019-06-26T23:02:47.409Z,98.10
2019-06-26T23:05:16.955Z,98.20
2019-06-26T23:07:46.380Z,98.20
2019-06-26T23:10:17.115Z,98.20
2019-06-26T23:12:46.367Z,98.30
2019-06-26T23:15:16.046Z,98.10
2019-06-26T23:17:45.289Z,98.10
2019-06-26T23:20:15.148Z,98.10
2019-06-26T23:22:44.280Z,98.10
2019-06-26T23:25:14.015Z,98.20
2019-06-26T23:27:43.204Z,98.10
2019-06-26T23:30:19.074Z,98.00
2019-06-26T23:32:48.387Z,98.10
2019-06-26T23:35:17.658Z,97.80
2019-06-26T23:37:47.154Z,98.10
2019-06-26T23:40:17.359Z,98.10
2019-06-26T23:42:46.566Z,98.00
2019-06-26T23:45:15.848Z,98.00
2019-06-26T23:47:45.048Z,98.10
2019-06-26T23:50:16.458Z,98.10
2019-06-26T23:52:45.728Z,98.10
2019-06-26T23:55:15.119Z,98.20
2019-06-26T23:57:57.890Z,98.20
